Montauk, New York
Current Conditions -  °F | °C
As of 5:56 PM on Wednesday 22 Oct 2014 (Local Time) from KGON Reporting Station
Light Rain Light Rain  
Wind Chill: 11°   Ceiling: 1600
Heat Index: 11°   Visibility: 10mi
Dew Point:   Wind: 24mph
Humidity: 89%   Direction: 20°NNE
Pressure: 29.73"   Gusts: 38mph
Location:  41.04°N, 71.95°W
Report Text: KGON 222156Z 02021G33KT 10SM -RA BKN016 OVC021 11/09 A2973 RMK AO2 PK WND 02035/2116 SLP068 P0002 T01060089
Loading
Personal Weather Stations






























Interactive Weather Map
Tropical Storm Tracking
New forecast layout! Learn more

10-Day Weather Forecast

Advertisements
Track Severe Weather on mobile